QTR39C EDDF-OTHH
Flight info
| Callsign | QTR39C |
|---|---|
| Flight time | N/A |
| Altitude | 37000 |
| Route | CINDY8S/18 CINDY Z74 LAMPU DCT NOMBO Y161 MAH DCT LATLO/N0477F390 DCT OBEDI DCT KLAGY DCT MAGAM DCT TIVNU DCT RETRA/N0488F410 DCT PINDO DCT PIKOS DCT GERMI DCT MIL UL617 SIT UL607 PAXIS Y707 OBRAN L321 REXUM M872 WEJ L604 GAS G662 KSA M440 SITER DCT LADBO T142 LAEEB |
| Aircraft | A359/H-SDE2E3GHIJ3J4J5LM1ORWXY/LB1D1 |
Departure
| Time | 2026-04-18 09:21 |
|---|---|
| Airport | Frankfurt Main Airport (EDDF) |
Arrival
| Time | N/A |
|---|---|
| Airport | Hamad International Airport (OTHH) |
| Time | Latitude | Longitude | Altitude | Speed | Heading |
|---|---|---|---|---|---|
| 2026-04-18 08:30 | 50.05045 | 8.58640 | 366 ft | 0 kts | 339° |
| 2026-04-18 09:04 | 50.05033 | 8.58647 | 365 ft | 3 kts | 339° |
| 2026-04-18 09:04 | 50.05014 | 8.58658 | 370 ft | 3 kts | 339° |
| 2026-04-18 09:05 | 50.04995 | 8.58669 | 369 ft | 3 kts | 339° |
| 2026-04-18 09:05 | 50.04977 | 8.58680 | 370 ft | 3 kts | 326° |
| 2026-04-18 09:05 | 50.04965 | 8.58699 | 370 ft | 3 kts | 285° |
| 2026-04-18 09:05 | 50.04964 | 8.58728 | 367 ft | 3 kts | 253° |
| 2026-04-18 09:06 | 50.04968 | 8.58746 | 368 ft | 2 kts | 249° |
| 2026-04-18 09:06 | 50.04974 | 8.58771 | 368 ft | 2 kts | 249° |
| 2026-04-18 09:06 | 50.04976 | 8.58777 | 371 ft | 4 kts | 249° |
| 2026-04-18 09:10 | 50.04972 | 8.58764 | 371 ft | 4 kts | 249° |
| 2026-04-18 09:10 | 50.04956 | 8.58706 | 371 ft | 7 kts | 238° |
| 2026-04-18 09:10 | 50.04914 | 8.58678 | 371 ft | 7 kts | 181° |
| 2026-04-18 09:11 | 50.04872 | 8.58694 | 370 ft | 5 kts | 160° |
| 2026-04-18 09:14 | 50.04868 | 8.58696 | 371 ft | 3 kts | 160° |
| 2026-04-18 09:14 | 50.04840 | 8.58712 | 374 ft | 4 kts | 161° |
| 2026-04-18 09:15 | 50.04808 | 8.58729 | 375 ft | 6 kts | 161° |
| 2026-04-18 09:15 | 50.04756 | 8.58757 | 375 ft | 11 kts | 164° |
| 2026-04-18 09:15 | 50.04675 | 8.58762 | 376 ft | 12 kts | 185° |
| 2026-04-18 09:15 | 50.04651 | 8.58758 | 376 ft | 0 kts | 186° |
| 2026-04-18 09:17 | 50.04630 | 8.58751 | 377 ft | 6 kts | 195° |
| 2026-04-18 09:17 | 50.04591 | 8.58721 | 377 ft | 7 kts | 208° |
| 2026-04-18 09:18 | 50.04540 | 8.58677 | 377 ft | 10 kts | 210° |
| 2026-04-18 09:18 | 50.04491 | 8.58595 | 377 ft | 12 kts | 244° |
| 2026-04-18 09:18 | 50.04480 | 8.58554 | 376 ft | 0 kts | 249° |
| 2026-04-18 09:20 | 50.04471 | 8.58517 | 376 ft | 24 kts | 249° |
| 2026-04-18 09:21 | 50.04325 | 8.57906 | 377 ft | 95 kts | 250° |
| 2026-04-18 09:21 | 50.04020 | 8.56633 | 368 ft | 154 kts | 250° |
| 2026-04-18 09:21 | 50.03593 | 8.54881 | 698 ft | 174 kts | 250° |
| 2026-04-18 09:21 | 50.03173 | 8.53186 | 1526 ft | 170 kts | 250° |
| 2026-04-18 09:22 | 50.02598 | 8.51492 | 1865 ft | 187 kts | 234° |
| 2026-04-18 09:22 | 50.01577 | 8.50067 | 2052 ft | 209 kts | 210° |
| 2026-04-18 09:22 | 50.00193 | 8.49258 | 2467 ft | 216 kts | 194° |
| 2026-04-18 09:22 | 49.98691 | 8.49319 | 2948 ft | 221 kts | 164° |
| 2026-04-18 09:23 | 49.97422 | 8.50616 | 3552 ft | 222 kts | 131° |
| 2026-04-18 09:23 | 49.96582 | 8.52600 | 4114 ft | 224 kts | 120° |
| 2026-04-18 09:23 | 49.95824 | 8.54767 | 4542 ft | 234 kts | 120° |
| 2026-04-18 09:23 | 49.95014 | 8.57086 | 4749 ft | 255 kts | 120° |
| 2026-04-18 09:24 | 49.94232 | 8.59647 | 5145 ft | 269 kts | 108° |
| 2026-04-18 09:24 | 49.93942 | 8.62543 | 5752 ft | 273 kts | 95° |
| 2026-04-18 09:24 | 49.93834 | 8.65492 | 6450 ft | 275 kts | 95° |
| 2026-04-18 09:24 | 49.93501 | 8.68410 | 7067 ft | 276 kts | 112° |
| 2026-04-18 09:25 | 49.92462 | 8.70877 | 7682 ft | 274 kts | 139° |
| 2026-04-18 09:25 | 49.90968 | 8.72716 | 8286 ft | 276 kts | 146° |
| 2026-04-18 09:25 | 49.89391 | 8.74458 | 8896 ft | 280 kts | 144° |
| 2026-04-18 09:25 | 49.88041 | 8.76665 | 9522 ft | 286 kts | 125° |
| 2026-04-18 09:26 | 49.87010 | 8.79320 | 10188 ft | 289 kts | 120° |
| 2026-04-18 09:26 | 49.86020 | 8.82101 | 10542 ft | 302 kts | 120° |